Time;durP1;ratioP1;P1;durP2;ratioP2;P2;SDS_P1;SDS_P2;PMS_P1;PMS_P2;Temp;Humidity;BMP_temperature;BMP_pressure;BME280_temperature;BME280_humidity;BME280_pressure;Samples;Min_cycle;Max_cycle;Signal;HPM_P1;HPM_P2
2023/10/28 00:04:07;;;;;;;27.05;11.95;;;;;;;11.93;100.00;99702.56;10410909;28;20045;-61
2023/10/28 00:09:08;;;;;;;29.92;11.10;;;;;;;11.94;100.00;99694.41;10410362;28;20041;-61
2023/10/28 00:14:09;;;;;;;33.58;12.98;;;;;;;12.10;100.00;99738.56;10410371;28;20488;-62
2023/10/28 00:19:10;;;;;;;34.40;13.73;;;;;;;12.05;100.00;99685.06;10409346;28;20497;-62
2023/10/28 00:24:11;;;;;;;28.45;13.55;;;;;;;12.32;100.00;99708.22;10410875;28;20045;-62
2023/10/28 00:29:12;;;;;;;35.72;12.80;;;;;;;12.37;100.00;99688.97;10418732;28;20041;-62
2023/10/28 00:34:13;;;;;;;39.58;15.05;;;;;;;12.30;100.00;99672.94;10436539;28;20057;-62
2023/10/28 00:39:13;;;;;;;32.90;13.38;;;;;;;12.30;100.00;99670.28;10445816;28;20583;-62
2023/10/28 00:44:15;;;;;;;27.40;13.50;;;;;;;12.38;100.00;99663.16;10408572;28;20105;-63
2023/10/28 00:49:16;;;;;;;26.88;12.38;;;;;;;12.26;100.00;99657.53;10408804;28;20076;-62
2023/10/28 00:54:17;;;;;;;28.42;12.13;;;;;;;12.14;100.00;99651.94;10409024;28;20048;-62
2023/10/28 00:59:18;;;;;;;27.83;10.98;;;;;;;12.01;100.00;99667.84;10445438;28;20055;-62
2023/10/28 01:04:19;;;;;;;27.10;11.82;;;;;;;11.95;100.00;99658.78;10450030;28;20089;-62
2023/10/28 01:09:21;;;;;;;27.48;11.68;;;;;;;12.04;100.00;99646.16;10448273;28;20040;-62
2023/10/28 01:14:21;;;;;;;33.15;11.48;;;;;;;11.64;100.00;99606.75;10449068;28;20088;-62
2023/10/28 01:19:22;;;;;;;25.10;11.45;;;;;;;11.80;100.00;99626.91;10448734;28;20128;-62
2023/10/28 01:24:23;;;;;;;29.50;11.30;;;;;;;11.56;100.00;99595.41;10448377;28;20041;-63
2023/10/28 01:29:24;;;;;;;30.92;11.63;;;;;;;11.84;100.00;99630.00;10447086;28;20036;-62
2023/10/28 01:34:26;;;;;;;29.02;11.07;;;;;;;11.47;100.00;99580.59;10448134;28;20121;-62
2023/10/28 01:39:26;;;;;;;30.13;11.32;;;;;;;11.68;100.00;99628.44;10447449;28;20043;-62
2023/10/28 01:44:27;;;;;;;28.48;11.02;;;;;;;11.52;100.00;99607.47;10447901;28;20408;-62
2023/10/28 01:49:28;;;;;;;29.90;11.90;;;;;;;11.64;100.00;99613.91;10448744;28;20496;-62
2023/10/28 01:54:33;;;;;;;25.60;11.95;;;;;;;11.56;100.00;99616.69;10448114;28;20040;-62
2023/10/28 01:59:35;;;;;;;27.00;11.98;;;;;;;11.52;100.00;99626.09;10448193;28;20037;-62
2023/10/28 02:04:36;;;;;;;31.20;12.32;;;;;;;11.36;100.00;99609.34;10448662;28;20048;-62
2023/10/28 02:09:37;;;;;;;28.20;11.77;;;;;;;11.37;100.00;99608.34;10448033;28;20416;-62
2023/10/28 02:14:40;;;;;;;25.73;11.27;;;;;;;11.45;100.00;99614.53;10447874;28;20044;-62
2023/10/28 02:19:41;;;;;;;22.70;10.85;;;;;;;11.48;100.00;99620.28;10448076;28;20044;-62
2023/10/28 02:24:42;;;;;;;56.75;12.27;;;;;;;11.53;100.00;99612.56;10419566;28;20539;-62
2023/10/28 02:29:42;;;;;;;47.08;12.63;;;;;;;11.50;100.00;99606.81;10414350;28;20044;-62
2023/10/28 02:34:43;;;;;;;29.35;11.80;;;;;;;11.66;100.00;99609.19;10447130;28;20423;-62
2023/10/28 02:39:44;;;;;;;43.80;12.43;;;;;;;11.72;100.00;99586.31;10454394;28;20492;-62
2023/10/28 02:44:45;;;;;;;24.02;11.82;;;;;;;11.85;100.00;99581.13;10416339;28;20082;-62
2023/10/28 02:49:46;;;;;;;24.35;11.85;;;;;;;12.09;100.00;99603.78;10412291;28;20415;-62
2023/10/28 02:54:47;;;;;;;37.90;12.00;;;;;;;12.13;100.00;99589.06;10412243;28;20047;-62
2023/10/28 02:59:48;;;;;;;25.95;12.30;;;;;;;12.06;100.00;99572.25;10412385;28;20579;-62
2023/10/28 03:04:49;;;;;;;45.78;12.95;;;;;;;12.19;100.00;99585.63;10411718;28;20128;-62
2023/10/28 03:09:50;;;;;;;25.77;12.13;;;;;;;12.09;100.00;99574.50;10411928;28;20095;-63
2023/10/28 03:14:51;;;;;;;38.50;13.18;;;;;;;11.92;100.00;99546.56;10411391;28;20577;-62
2023/10/28 03:19:52;;;;;;;38.22;12.45;;;;;;;12.21;100.00;99604.88;10411973;28;20098;-62
2023/10/28 03:24:52;;;;;;;32.58;13.45;;;;;;;12.15;100.00;99599.53;10410630;28;20097;-62
2023/10/28 03:29:53;;;;;;;55.97;14.75;;;;;;;12.15;100.00;99599.53;10409742;28;20041;-62
2023/10/28 03:34:54;;;;;;;26.00;12.57;;;;;;;12.28;100.00;99627.03;10411202;28;20524;-63
2023/10/28 03:39:55;;;;;;;29.60;13.75;;;;;;;12.42;100.00;99659.09;10411286;28;20580;-62
2023/10/28 03:44:56;;;;;;;26.27;12.88;;;;;;;12.45;100.00;99685.34;10410632;28;20045;-62
2023/10/28 03:49:57;;;;;;;66.68;13.68;;;;;;;12.04;100.00;99592.91;10410154;28;20505;-62
2023/10/28 03:54:58;;;;;;;34.97;12.70;;;;;;;12.37;100.00;99650.84;10410417;28;20086;-63
2023/10/28 03:59:59;;;;;;;33.97;12.43;;;;;;;12.50;100.00;99653.56;10410230;28;20047;-62
2023/10/28 04:05:00;;;;;;;51.72;16.40;;;;;;;12.40;100.00;99614.00;10410625;28;20041;-62
2023/10/28 04:10:07;;;;;;;30.35;15.88;;;;;;;12.46;100.00;99607.06;10439551;28;20045;-62
2023/10/28 04:15:09;;;;;;;31.52;16.35;;;;;;;12.65;100.00;99605.47;10450022;28;20037;-62
2023/10/28 04:20:10;;;;;;;33.92;17.60;;;;;;;12.96;99.39;99635.13;10451337;28;20133;-63
2023/10/28 04:25:10;;;;;;;37.83;17.90;;;;;;;12.88;98.94;99597.16;10450952;28;20037;-63
2023/10/28 04:30:12;;;;;;;40.25;16.98;;;;;;;13.30;98.52;99645.88;10443987;28;20049;-63
2023/10/28 04:35:12;;;;;;;48.40;18.92;;;;;;;13.53;97.92;99626.84;10421379;28;20060;-63
2023/10/28 04:40:13;;;;;;;62.28;24.55;;;;;;;13.28;97.13;99574.06;10424306;28;20045;-63
2023/10/28 04:45:14;;;;;;;35.58;15.05;;;;;;;13.76;96.75;99637.09;10409653;28;20037;-62
2023/10/28 04:50:17;;;;;;;41.47;13.80;;;;;;;13.45;95.86;99563.81;10447040;28;20127;-61
2023/10/28 04:55:17;;;;;;;57.80;15.90;;;;;;;13.91;95.82;99601.16;10449031;28;20124;-62
2023/10/28 05:00:18;;;;;;;41.28;15.57;;;;;;;13.73;95.74;99565.44;10448408;28;20127;-62
2023/10/28 05:05:19;;;;;;;38.03;17.50;;;;;;;14.08;95.12;99593.50;10449524;28;20041;-61
2023/10/28 05:10:20;;;;;;;35.33;15.82;;;;;;;14.27;94.63;99599.84;10448928;28;20085;-62
2023/10/28 05:15:21;;;;;;;41.47;15.95;;;;;;;14.34;93.97;99584.59;10448802;28;20045;-61
2023/10/28 05:20:22;;;;;;;40.90;16.48;;;;;;;14.50;93.57;99595.84;10440981;28;20037;-62
2023/10/28 05:25:22;;;;;;;43.17;19.90;;;;;;;14.57;93.03;99594.00;10433051;28;20159;-63
2023/10/28 05:30:23;;;;;;;32.33;17.05;;;;;;;14.60;92.08;99535.59;10429715;28;20052;-62
2023/10/28 05:35:24;;;;;;;31.65;17.17;;;;;;;15.29;90.68;99594.63;10426532;28;20494;-62
2023/10/28 05:40:25;;;;;;;33.35;16.73;;;;;;;15.55;89.16;99563.31;10433236;28;20045;-62
2023/10/28 05:45:25;;;;;;;53.75;26.67;;;;;;;15.65;88.11;99564.47;10429781;28;20041;-62
2023/10/28 05:50:28;;;;;;;42.30;16.67;;;;;;;15.85;87.59;99553.56;10432767;28;20061;-62
2023/10/28 05:55:29;;;;;;;43.33;14.68;;;;;;;16.05;86.81;99547.19;10428685;28;20049;-63
2023/10/28 06:00:30;;;;;;;72.22;38.50;;;;;;;16.29;86.42;99522.19;10436382;28;20045;-61
2023/10/28 06:05:31;;;;;;;48.97;24.30;;;;;;;16.63;85.25;99519.88;10427049;28;20033;-62
2023/10/28 06:10:34;;;;;;;62.30;26.58;;;;;;;16.47;83.83;99458.84;10436995;28;20037;-61
2023/10/28 06:15:35;;;;;;;52.03;23.23;;;;;;;17.08;82.23;99496.13;10436271;28;20076;-61
2023/10/28 06:20:36;;;;;;;38.28;16.95;;;;;;;17.27;79.53;99464.63;10436897;28;20508;-62
2023/10/28 06:25:37;;;;;;;61.45;24.65;;;;;;;17.77;77.18;99482.97;10433419;28;20065;-62
2023/10/28 06:30:48;;;;;;;36.97;12.00;;;;;;;17.91;71.85;99418.22;10442793;28;20033;-61
2023/10/28 06:35:49;;;;;;;30.05;8.68;;;;;;;18.42;72.29;99438.00;10439979;28;20057;-62
2023/10/28 06:40:49;;;;;;;19.27;7.68;;;;;;;18.61;70.99;99414.41;10429848;28;20045;-61
2023/10/28 06:45:50;;;;;;;33.17;7.68;;;;;;;19.14;69.57;99450.78;10434748;28;20503;-63
2023/10/28 06:50:51;;;;;;;19.38;6.63;;;;;;;19.40;67.83;99427.75;10441150;28;20515;-63
2023/10/28 06:55:52;;;;;;;23.58;6.70;;;;;;;19.49;65.92;99396.63;10433078;28;20056;-62
2023/10/28 07:00:52;;;;;;;33.90;6.88;;;;;;;20.02;64.48;99435.59;10428574;28;20086;-62
2023/10/28 07:05:53;;;;;;;29.45;6.65;;;;;;;20.30;63.04;99431.03;10421489;28;20175;-62
2023/10/28 07:10:54;;;;;;;46.75;7.25;;;;;;;20.63;62.20;99440.00;10435859;28;20409;-62
2023/10/28 07:16:02;;;;;;;39.58;6.65;;;;;;;20.61;57.75;99382.75;10439306;28;20037;-64
2023/10/28 07:21:03;;;;;;;26.90;6.07;;;;;;;21.28;59.07;99419.97;10434455;28;20037;-62
2023/10/28 07:26:04;;;;;;;25.92;6.13;;;;;;;21.70;57.87;99432.66;10442084;28;20044;-61
2023/10/28 07:31:08;;;;;;;36.00;6.18;;;;;;;22.04;56.80;99434.94;10430589;28;20044;-62
2023/10/28 07:36:08;;;;;;;;;;;;;;;22.43;55.23;99432.63;10447726;28;20044;-64
2023/10/28 07:41:09;;;;;;;15.18;5.70;;;;;;;22.53;55.99;99411.00;10452732;28;19920;-63
2023/10/28 07:46:10;;;;;;;19.92;8.52;;;;;;;22.64;54.66;99398.28;10449509;28;20037;-63
2023/10/28 07:51:13;;;;;;;58.10;19.90;;;;;;;22.58;53.62;99393.16;10448685;28;20037;-63
2023/10/28 07:56:14;;;;;;;29.53;11.30;;;;;;;22.63;53.89;99385.84;10447922;28;20043;-63
2023/10/28 08:01:17;;;;;;;44.30;7.57;;;;;;;22.79;53.19;99384.78;10446938;28;20065;-63
2023/10/28 08:06:19;;;;;;;17.55;6.25;;;;;;;23.00;51.98;99365.78;10449378;28;20048;-63
2023/10/28 08:11:24;;;;;;;22.98;6.80;;;;;;;23.41;51.94;99377.34;10448344;28;20124;-63
2023/10/28 08:16:24;;;;;;;21.52;5.65;;;;;;;23.74;50.38;99363.41;10446949;28;20069;-62
2023/10/28 08:21:27;;;;;;;22.15;5.85;;;;;;;23.93;49.82;99337.25;10447516;28;20097;-62
2023/10/28 08:26:27;;;;;;;22.13;5.68;;;;;;;24.20;49.19;99330.59;10449625;28;20098;-63
2023/10/28 08:31:28;;;;;;;20.73;5.72;;;;;;;24.35;48.10;99311.47;10450654;28;20564;-61
2023/10/28 08:36:29;;;;;;;15.23;5.40;;;;;;;24.44;46.57;99303.56;10449271;28;20135;-63
2023/10/28 08:41:31;;;;;;;30.55;6.20;;;;;;;24.55;47.03;99295.03;10450684;28;20048;-62
2023/10/28 08:46:32;;;;;;;20.85;6.63;;;;;;;24.71;46.92;99281.31;10450161;28;20045;-64
2023/10/28 08:51:36;;;;;;;24.65;7.45;;;;;;;24.84;46.52;99229.03;10448516;28;20112;-62
2023/10/28 08:56:41;;;;;;;32.25;5.97;;;;;;;25.48;44.57;99276.63;10448096;28;20037;-62
2023/10/28 09:01:43;;;;;;;69.10;7.07;;;;;;;25.69;43.11;99268.97;10448809;28;20511;-63
2023/10/28 09:06:44;;;;;;;13.88;5.20;;;;;;;25.88;43.05;99258.16;10449010;28;20057;-62
2023/10/28 09:11:45;;;;;;;31.73;6.60;;;;;;;25.96;42.61;99241.13;10449076;28;20053;-64
2023/10/28 09:16:46;;;;;;;25.50;6.72;;;;;;;25.77;42.43;99196.78;10447887;28;20080;-63
2023/10/28 09:21:48;;;;;;;21.50;5.97;;;;;;;26.21;41.35;99230.94;10449654;28;20047;-63
2023/10/28 09:26:52;;;;;;;15.90;5.50;;;;;;;26.66;40.89;99238.63;10448898;28;20137;-61
2023/10/28 09:32:01;;;;;;;28.02;5.28;;;;;;;26.87;39.85;99234.38;10448381;28;20048;-63
2023/10/28 09:37:03;;;;;;;18.98;5.47;;;;;;;26.72;39.76;99202.78;10448232;28;20156;-62
2023/10/28 09:42:04;;;;;;;17.98;5.20;;;;;;;26.99;38.85;99223.78;10447297;28;20420;-63
2023/10/28 09:47:05;;;;;;;23.17;5.22;;;;;;;26.99;37.92;99220.25;10440870;28;20041;-62
2023/10/28 09:52:09;;;;;;;38.67;5.95;;;;;;;27.29;37.30;99227.81;10408091;28;20057;-62
2023/10/28 09:57:11;;;;;;;15.88;5.45;;;;;;;27.25;37.33;99234.16;10408178;28;20041;-62
2023/10/28 10:02:23;;;;;;;19.63;5.13;;;;;;;27.17;37.71;99230.25;10415321;28;20053;-62
2023/10/28 10:07:25;;;;;;;21.00;5.03;;;;;;;27.38;37.05;99225.16;10407023;28;20037;-62
2023/10/28 10:12:33;;;;;;;14.82;4.82;;;;;;;27.66;35.02;99228.59;10407384;28;20045;-63
2023/10/28 10:17:46;;;;;;;19.27;4.78;;;;;;;27.69;34.72;99224.47;10406145;28;20047;-62
2023/10/28 10:22:56;;;;;;;15.65;4.68;;;;;;;27.70;33.25;99237.81;10404646;28;20136;-63
2023/10/28 10:28:10;;;;;;;16.40;4.53;;;;;;;27.73;32.94;99209.91;10405354;28;20048;-62
2023/10/28 10:33:11;;;;;;;23.92;4.78;;;;;;;27.85;33.64;99216.72;10434482;28;20396;-63
2023/10/28 10:38:13;;;;;;;24.92;4.07;;;;;;;27.78;32.95;99176.25;10422844;28;20049;-63
2023/10/28 10:43:19;;;;;;;14.35;4.80;;;;;;;27.34;31.87;99142.34;10432708;28;20048;-63
2023/10/28 10:48:20;;;;;;;15.35;4.13;;;;;;;27.63;31.74;99188.31;10438145;28;20045;-64
2023/10/28 10:53:22;;;;;;;17.48;4.18;;;;;;;27.69;32.18;99191.72;10442396;28;20037;-64
2023/10/28 10:58:24;;;;;;;21.80;4.37;;;;;;;28.09;31.89;99200.03;10433431;28;20089;-63
2023/10/28 11:03:27;;;;;;;13.40;3.75;;;;;;;28.04;31.61;99190.06;10434912;28;20475;-64
2023/10/28 11:08:28;;;;;;;16.92;4.18;;;;;;;27.94;31.86;99203.94;10434579;28;20041;-64
2023/10/28 11:13:29;;;;;;;19.88;4.57;;;;;;;27.84;31.81;99199.56;10438595;28;20045;-63
2023/10/28 11:18:30;;;;;;;16.35;4.28;;;;;;;27.49;31.51;99149.34;10435755;28;20044;-64
2023/10/28 11:23:31;;;;;;;13.00;3.85;;;;;;;27.86;31.43;99202.00;10438560;28;20064;-64
2023/10/28 11:28:33;;;;;;;16.95;4.05;;;;;;;27.74;31.73;99184.22;10448389;28;20040;-66
2023/10/28 11:33:35;;;;;;;17.17;4.32;;;;;;;27.79;31.45;99202.44;10451963;28;20048;-64
2023/10/28 11:38:36;;;;;;;18.88;7.47;;;;;;;27.60;31.28;99171.75;10451843;28;20049;-61
2023/10/28 11:43:37;;;;;;;17.35;5.22;;;;;;;27.72;31.54;99210.19;10428435;28;20045;-63
2023/10/28 11:48:38;;;;;;;13.73;4.88;;;;;;;27.67;31.51;99205.69;10446513;28;20076;-63
2023/10/28 11:53:44;;;;;;;15.57;4.45;;;;;;;27.56;31.35;99209.75;10441962;28;20060;-63
2023/10/28 11:58:45;;;;;;;14.73;5.25;;;;;;;27.52;31.48;99215.03;10438222;28;20033;-61
2023/10/28 12:03:45;;;;;;;12.10;5.00;;;;;;;27.38;31.75;99211.53;10441240;28;20065;-63
2023/10/28 12:08:48;;;;;;;14.70;5.60;;;;;;;27.29;32.12;99214.16;10438119;28;20132;-63
2023/10/28 12:13:49;;;;;;;;;;;;;;;27.35;31.24;99216.78;10434624;28;20041;-63
2023/10/28 12:18:50;;;;;;;11.50;4.43;;;;;;;27.05;33.20;99198.03;10436943;28;19923;-62
2023/10/28 12:23:51;;;;;;;28.88;8.63;;;;;;;26.98;33.33;99199.53;10430618;28;20038;-62
2023/10/28 12:28:52;;;;;;;16.02;5.65;;;;;;;26.73;33.51;99181.81;10426791;28;20044;-63
2023/10/28 12:33:53;;;;;;;17.23;5.80;;;;;;;26.36;34.15;99143.53;10438499;28;20489;-63
2023/10/28 12:38:54;;;;;;;18.13;4.68;;;;;;;26.38;33.75;99160.41;10426798;28;20041;-64
2023/10/28 12:43:55;;;;;;;12.77;4.30;;;;;;;26.48;34.31;99202.16;10424077;28;20037;-62
2023/10/28 12:48:55;;;;;;;47.22;23.13;;;;;;;26.33;34.24;99205.97;10428458;28;20136;-62
2023/10/28 12:53:59;;;;;;;41.15;11.35;;;;;;;26.24;34.78;99215.94;10437244;28;20045;-62
2023/10/28 12:59:00;;;;;;;25.63;13.73;;;;;;;25.80;34.85;99171.72;10449800;28;20412;-63
2023/10/28 13:04:01;;;;;;;31.48;11.98;;;;;;;25.88;35.75;99221.97;10449156;28;20037;-62
2023/10/28 13:09:05;;;;;;;18.52;5.72;;;;;;;25.79;35.07;99235.41;10448993;28;20090;-62
2023/10/28 13:14:06;;;;;;;20.75;8.02;;;;;;;25.61;35.28;99238.94;10437054;28;21127;-63
2023/10/28 13:19:07;;;;;;;25.60;9.07;;;;;;;25.30;35.99;99247.50;10449447;28;20041;-62
2023/10/28 13:24:09;;;;;;;33.10;7.47;;;;;;;24.85;37.51;99244.22;10448514;28;20040;-62
2023/10/28 13:29:09;;;;;;;42.45;6.78;;;;;;;24.50;38.32;99267.13;10447939;28;20153;-61
2023/10/28 13:34:10;;;;;;;68.07;12.27;;;;;;;24.14;38.72;99245.69;10449008;28;20144;-63
2023/10/28 13:39:11;;;;;;;46.88;21.48;;;;;;;24.12;38.00;99275.84;10449229;28;20384;-64
2023/10/28 13:44:12;;;;;;;100.70;32.47;;;;;;;23.90;38.69;99280.88;10448414;28;20049;-63
2023/10/28 13:49:20;;;;;;;109.80;32.33;;;;;;;23.50;39.71;99290.03;10446900;28;20491;-63
2023/10/28 13:54:21;;;;;;;54.10;25.23;;;;;;;23.29;39.90;99297.44;10418033;28;20045;-63
2023/10/28 13:59:22;;;;;;;102.13;45.45;;;;;;;22.98;40.15;99311.91;10404805;28;20033;-64
2023/10/28 14:04:24;;;;;;;110.28;42.13;;;;;;;22.50;41.82;99316.03;10419401;28;20072;-63
2023/10/28 14:09:24;;;;;;;190.38;43.83;;;;;;;22.06;43.66;99311.91;10422012;28;20037;-61
2023/10/28 14:14:25;;;;;;;121.75;38.63;;;;;;;21.54;45.01;99312.88;10421736;28;20063;-62
2023/10/28 14:19:26;;;;;;;87.45;29.60;;;;;;;21.30;45.82;99336.81;10432679;28;20051;-66
2023/10/28 14:24:29;;;;;;;120.07;34.95;;;;;;;20.88;46.80;99329.56;10418537;28;20044;-61
2023/10/28 14:29:30;;;;;;;146.60;44.33;;;;;;;20.15;47.57;99293.34;10432164;28;20457;-62
2023/10/28 14:34:32;;;;;;;167.38;58.58;;;;;;;20.19;49.24;99357.31;10433110;28;20503;-62
2023/10/28 14:39:33;;;;;;;112.22;45.80;;;;;;;19.97;49.68;99357.34;10423083;28;20080;-60
2023/10/28 14:44:35;;;;;;;161.77;66.18;;;;;;;19.79;49.74;99349.59;10428367;28;20036;-61
2023/10/28 14:49:36;;;;;;;194.88;93.35;;;;;;;19.77;50.25;99373.28;10421042;28;20054;-62
2023/10/28 14:54:37;;;;;;;198.57;82.70;;;;;;;19.49;51.46;99383.16;10425389;28;20500;-61
2023/10/28 14:59:37;;;;;;;157.65;73.28;;;;;;;19.28;51.66;99382.06;10438389;28;20045;-61
2023/10/28 15:04:38;;;;;;;162.52;78.28;;;;;;;18.70;52.80;99365.31;10433466;28;20049;-61
2023/10/28 15:09:39;;;;;;;227.85;108.75;;;;;;;18.79;53.08;99383.78;10425802;28;20071;-61
2023/10/28 15:14:40;;;;;;;274.15;128.25;;;;;;;18.59;53.18;99368.91;10421332;28;20089;-61
2023/10/28 15:19:41;;;;;;;283.27;146.25;;;;;;;18.12;53.64;99326.16;10433438;28;20512;-61
2023/10/28 15:24:42;;;;;;;289.00;139.98;;;;;;;18.16;55.13;99409.84;10434032;28;20049;-62
2023/10/28 15:29:43;;;;;;;304.60;143.45;;;;;;;17.63;55.77;99365.25;10427784;28;20046;-61
2023/10/28 15:34:47;;;;;;;262.85;135.45;;;;;;;18.00;55.68;99431.03;10425918;28;20060;-63
2023/10/28 15:39:48;;;;;;;290.33;158.32;;;;;;;17.96;56.05;99434.44;10429732;28;20123;-63
2023/10/28 15:44:48;;;;;;;332.83;167.23;;;;;;;17.42;56.49;99372.06;10418892;28;20056;-61
2023/10/28 15:49:52;;;;;;;377.35;202.15;;;;;;;17.87;58.11;99446.63;10422165;28;20067;-62
2023/10/28 15:54:53;;;;;;;360.85;182.20;;;;;;;17.87;57.57;99452.81;10430738;28;20044;-62
2023/10/28 15:59:54;;;;;;;365.33;185.00;;;;;;;17.81;58.33;99463.69;10421412;28;20056;-62
2023/10/28 16:04:55;;;;;;;368.73;190.40;;;;;;;17.68;58.15;99481.66;10407679;28;20050;-61
2023/10/28 16:09:57;;;;;;;402.00;201.98;;;;;;;17.52;58.44;99483.19;10429343;28;20056;-62
2023/10/28 16:14:58;;;;;;;383.10;197.38;;;;;;;17.49;58.87;99472.09;10424472;28;20033;-63
2023/10/28 16:19:59;;;;;;;339.52;177.93;;;;;;;17.33;58.30;99452.16;10409766;28;20120;-63
2023/10/28 16:25:00;;;;;;;297.65;145.13;;;;;;;17.31;58.60;99438.94;10416717;28;20041;-60
2023/10/28 16:30:01;;;;;;;248.05;122.85;;;;;;;17.57;58.74;99490.53;10451338;28;20048;-60
2023/10/28 16:35:03;;;;;;;245.00;123.75;;;;;;;17.43;58.74;99513.31;10444689;28;20049;-62
2023/10/28 16:40:05;;;;;;;251.73;124.57;;;;;;;17.11;59.45;99514.44;10450310;28;20037;-61
2023/10/28 16:45:06;;;;;;;285.52;130.93;;;;;;;17.14;59.98;99529.28;10434046;28;20522;-62
2023/10/28 16:50:07;;;;;;;245.32;117.53;;;;;;;17.05;60.54;99531.47;10440581;28;20083;-61
2023/10/28 16:55:09;;;;;;;222.57;105.57;;;;;;;17.10;60.00;99533.47;10447583;28;20041;-62
2023/10/28 17:00:13;;;;;;;244.48;110.05;;;;;;;16.78;60.87;99514.97;10447575;28;20048;-62
2023/10/28 17:05:14;;;;;;;225.27;107.07;;;;;;;16.79;61.38;99521.94;10419274;28;20041;-63
2023/10/28 17:10:14;;;;;;;193.10;88.63;;;;;;;16.78;61.11;99528.38;10422733;28;20051;-61
2023/10/28 17:15:15;;;;;;;179.80;84.82;;;;;;;16.79;60.86;99547.97;10445113;28;20037;-63
2023/10/28 17:20:17;;;;;;;162.30;73.25;;;;;;;16.57;60.85;99505.53;10428669;28;20045;-61
2023/10/28 17:25:18;;;;;;;163.48;72.03;;;;;;;16.85;60.55;99557.78;10449059;28;20040;-62
2023/10/28 17:30:21;;;;;;;143.23;63.47;;;;;;;16.82;61.57;99559.03;10449153;28;20146;-63
2023/10/28 17:35:22;;;;;;;149.52;69.43;;;;;;;16.91;61.21;99556.06;10448341;28;20057;-62
2023/10/28 17:40:24;;;;;;;166.07;74.00;;;;;;;16.93;61.01;99562.81;10449369;28;20049;-61
2023/10/28 17:45:29;;;;;;;145.38;67.32;;;;;;;16.89;61.11;99577.72;10445661;28;20045;-61
2023/10/28 17:50:30;;;;;;;148.75;66.18;;;;;;;16.89;61.70;99567.00;10448360;28;20052;-60
2023/10/28 17:55:31;;;;;;;148.63;65.13;;;;;;;16.80;61.98;99569.19;10447856;28;20041;-61
2023/10/28 18:00:33;;;;;;;148.98;60.92;;;;;;;16.73;63.00;99586.38;10428332;28;20048;-61
2023/10/28 18:05:34;;;;;;;131.35;54.28;;;;;;;16.73;62.80;99592.56;10407522;28;20044;-62
2023/10/28 18:10:35;;;;;;;113.07;51.65;;;;;;;16.65;63.04;99598.22;10447382;28;20080;-63
2023/10/28 18:15:38;;;;;;;114.75;48.00;;;;;;;16.66;63.53;99611.44;10414294;28;20140;-61
2023/10/28 18:20:42;;;;;;;94.67;39.20;;;;;;;16.70;62.89;99603.75;10439940;28;20135;-61
2023/10/28 18:25:43;;;;;;;99.05;38.05;;;;;;;16.60;63.06;99601.59;10453683;28;20378;-61
2023/10/28 18:30:44;;;;;;;72.95;26.75;;;;;;;16.71;62.63;99610.75;10448630;28;20048;-61
2023/10/28 18:35:46;;;;;;;56.47;22.02;;;;;;;16.89;61.91;99621.47;10414619;28;20097;-61
2023/10/28 18:40:47;;;;;;;69.57;22.73;;;;;;;16.88;61.87;99602.94;10426705;28;20457;-63
2023/10/28 18:45:48;;;;;;;71.47;27.15;;;;;;;16.65;62.04;99572.22;10452482;28;20037;-61
2023/10/28 18:50:49;;;;;;;65.43;33.47;;;;;;;16.91;62.19;99625.81;10451985;28;20045;-62
2023/10/28 18:55:54;;;;;;;71.70;32.22;;;;;;;16.60;63.44;99587.34;10453934;28;20123;-63
2023/10/28 19:00:55;;;;;;;87.72;31.27;;;;;;;16.79;63.29;99629.25;10446535;28;20048;-62
2023/10/28 19:05:57;;;;;;;93.15;29.20;;;;;;;16.80;63.09;99644.28;10412452;28;20037;-61
2023/10/28 19:10:58;;;;;;;62.40;24.85;;;;;;;16.92;62.91;99635.47;10411849;28;20408;-61
2023/10/28 19:16:00;;;;;;;73.55;25.80;;;;;;;16.93;62.28;99635.25;10411698;28;20050;-62
2023/10/28 19:21:01;;;;;;;63.70;25.00;;;;;;;16.91;62.19;99626.63;10436385;28;20037;-62
2023/10/28 19:26:02;;;;;;;80.18;25.52;;;;;;;16.76;62.78;99618.97;10434719;28;20045;-62
2023/10/28 19:31:04;;;;;;;71.25;23.25;;;;;;;16.88;62.85;99640.47;10435990;28;20159;-62
2023/10/28 19:36:07;;;;;;;49.63;20.25;;;;;;;16.84;62.54;99639.28;10431061;28;20060;-62
2023/10/28 19:41:08;;;;;;;48.90;18.70;;;;;;;16.82;62.83;99628.78;10433015;28;20045;-62
2023/10/28 19:46:09;;;;;;;38.00;15.57;;;;;;;16.85;62.97;99665.88;10426785;28;20038;-61
2023/10/28 19:51:10;;;;;;;84.82;17.42;;;;;;;16.86;63.06;99662.16;10452931;28;20045;-60
2023/10/28 19:56:13;;;;;;;58.70;17.35;;;;;;;16.86;63.52;99656.78;10451802;28;20037;-60
2023/10/28 20:01:14;;;;;;;57.00;18.47;;;;;;;16.78;63.96;99665.16;10451453;28;20460;-61
2023/10/28 20:06:16;;;;;;;58.35;18.08;;;;;;;16.66;63.84;99656.19;10451650;28;20061;-60
2023/10/28 20:11:17;;;;;;;53.88;22.00;;;;;;;16.89;62.88;99676.97;10451104;28;20048;-60
2023/10/28 20:16:20;;;;;;;64.10;23.23;;;;;;;16.86;62.76;99675.56;10450999;28;20048;-61
2023/10/28 20:21:21;;;;;;;64.97;21.10;;;;;;;16.66;63.64;99672.25;10450842;28;20033;-63
2023/10/28 20:26:22;;;;;;;58.83;19.83;;;;;;;16.57;63.78;99678.97;10450456;28;20412;-62
2023/10/28 20:31:22;;;;;;;55.65;19.40;;;;;;;16.33;63.73;99657.41;10450716;28;20041;-61
2023/10/28 20:36:24;;;;;;;58.60;19.73;;;;;;;16.33;64.61;99688.72;10451519;28;20065;-61
2023/10/28 20:41:25;;;;;;;55.72;17.75;;;;;;;16.13;65.17;99710.34;10450551;28;20037;-61
2023/10/28 20:46:27;;;;;;;49.17;18.10;;;;;;;15.85;65.21;99719.63;10450269;28;20032;-61
2023/10/28 20:51:27;;;;;;;48.42;17.63;;;;;;;15.53;65.09;99697.41;10451140;28;20162;-61
2023/10/28 20:56:28;;;;;;;42.03;14.35;;;;;;;15.39;64.40;99677.91;10450149;28;20127;-61
2023/10/28 21:01:30;;;;;;;47.28;14.10;;;;;;;15.47;64.46;99691.03;10450186;28;20037;-60
2023/10/28 21:06:30;;;;;;;28.65;13.48;;;;;;;15.34;64.64;99685.75;10444896;28;20048;-60
2023/10/28 21:11:32;;;;;;;26.85;12.73;;;;;;;15.40;65.06;99714.34;10440433;28;20042;-61
2023/10/28 21:16:36;;;;;;;42.63;14.30;;;;;;;15.61;65.50;99756.00;10408985;28;20048;-61
2023/10/28 21:21:36;;;;;;;35.40;15.40;;;;;;;15.53;65.60;99758.97;10439205;28;20044;-60
2023/10/28 21:26:37;;;;;;;66.97;17.15;;;;;;;15.37;66.34;99759.44;10448708;28;20412;-60
2023/10/28 21:31:38;;;;;;;45.28;15.00;;;;;;;15.31;66.59;99771.81;10448692;28;20123;-61
2023/10/28 21:36:38;;;;;;;34.50;14.10;;;;;;;15.21;66.56;99792.88;10449455;28;20053;-60
2023/10/28 21:41:39;;;;;;;35.55;15.48;;;;;;;14.97;67.09;99794.38;10409024;28;20071;-60
2023/10/28 21:46:40;;;;;;;75.43;36.17;;;;;;;15.04;67.02;99790.66;10406873;28;20172;-60
2023/10/28 21:51:41;;;;;;;67.60;29.35;;;;;;;15.09;67.44;99799.91;10407077;28;20454;-60
2023/10/28 21:56:41;;;;;;;78.68;31.92;;;;;;;15.07;67.55;99806.28;10406060;28;20416;-60
2023/10/28 22:01:42;;;;;;;78.72;31.83;;;;;;;14.97;67.75;99803.22;10406764;28;20083;-60
2023/10/28 22:06:44;;;;;;;81.35;33.53;;;;;;;14.96;67.83;99808.81;10406445;28;20101;-60
2023/10/28 22:11:47;;;;;;;84.72;30.77;;;;;;;15.00;68.07;99829.56;10407124;28;20045;-60
2023/10/28 22:16:49;;;;;;;79.55;26.58;;;;;;;14.63;68.03;99777.59;10407091;28;20044;-60
2023/10/28 22:21:50;;;;;;;61.75;24.30;;;;;;;15.02;67.98;99827.50;10406096;28;20559;-60
2023/10/28 22:26:51;;;;;;;56.13;24.02;;;;;;;14.69;67.72;99783.94;10405618;28;20069;-60
2023/10/28 22:31:52;;;;;;;52.90;23.05;;;;;;;14.70;67.73;99788.28;10406512;28;20038;-60
2023/10/28 22:36:52;;;;;;;64.63;25.73;;;;;;;14.79;67.92;99790.50;10433826;28;20056;-62
2023/10/28 22:41:56;;;;;;;84.32;26.05;;;;;;;15.20;68.48;99869.66;10446145;28;20078;-60
2023/10/28 22:46:56;;;;;;;47.97;22.40;;;;;;;15.32;68.16;99871.69;10445183;28;20080;-60
2023/10/28 22:51:57;;;;;;;45.53;22.15;;;;;;;15.01;67.92;99809.78;10447161;28;20068;-60